Time;durP1;ratioP1;P1;durP2;ratioP2;P2;SDS_P1;SDS_P2;PMS_P1;PMS_P2;Temp;Humidity;BMP_temperature;BMP_pressure;BME280_temperature;BME280_humidity;BME280_pressure;Samples;Min_cycle;Max_cycle;Signal;HPM_P1;HPM_P2
2023/10/18 00:03:44;;;;;;;5.72;1.38;;;;;;;6.44;62.45;100243.06;10229737;28;20044;-60
2023/10/18 00:08:46;;;;;;;6.28;1.92;;;;;;;6.44;62.40;100234.22;10222010;28;20529;-60
2023/10/18 00:13:49;;;;;;;2.33;1.25;;;;;;;6.35;61.61;100230.59;10224753;28;20059;-59
2023/10/18 00:18:51;;;;;;;4.25;1.30;;;;;;;6.30;61.77;100232.88;10222430;28;20047;-60
2023/10/18 00:23:52;;;;;;;3.22;1.33;;;;;;;6.27;62.52;100225.19;10227783;28;20054;-60
2023/10/18 00:28:55;;;;;;;3.83;1.13;;;;;;;6.27;61.54;100230.53;10225459;28;20130;-60
2023/10/18 00:33:57;;;;;;;5.70;1.33;;;;;;;6.23;62.34;100224.66;10226651;28;20169;-60
2023/10/18 00:38:58;;;;;;;2.60;1.40;;;;;;;6.22;61.94;100220.31;10227403;28;20051;-60
2023/10/18 00:44:00;;;;;;;2.03;1.15;;;;;;;6.19;62.83;100225.13;10231576;28;20047;-60
2023/10/18 00:49:02;;;;;;;2.78;0.90;;;;;;;6.17;62.38;100216.41;10231300;28;20057;-61
2023/10/18 00:54:11;;;;;;;3.78;1.52;;;;;;;6.13;61.88;100208.69;10224308;28;20119;-58
2023/10/18 00:59:26;;;;;;;2.03;1.13;;;;;;;6.09;62.35;100209.16;10217481;28;20879;-59
2023/10/18 01:04:31;;;;;;;3.50;1.15;;;;;;;6.00;62.44;100202.03;10222321;28;20075;-59
2023/10/18 01:09:32;;;;;;;3.38;1.77;;;;;;;5.99;63.08;100203.88;10223392;28;21089;-60
2023/10/18 01:14:34;;;;;;;3.45;1.33;;;;;;;5.97;63.25;100191.69;10214710;28;20453;-59
2023/10/18 01:19:36;;;;;;;3.92;1.85;;;;;;;5.92;62.67;100195.63;10223522;28;20040;-60
2023/10/18 01:24:39;;;;;;;3.88;1.15;;;;;;;5.89;62.67;100184.41;10221961;28;20467;-58
2023/10/18 01:29:41;;;;;;;2.63;1.13;;;;;;;5.88;62.58;100180.88;10212366;28;20522;-59
2023/10/18 01:34:42;;;;;;;3.30;1.55;;;;;;;5.83;63.31;100175.16;10222367;28;20055;-59
2023/10/18 01:39:44;;;;;;;3.40;1.27;;;;;;;5.80;63.03;100167.44;10218096;28;20491;-58
2023/10/18 01:44:48;;;;;;;4.63;1.95;;;;;;;5.80;63.21;100163.94;10223078;28;20574;-58
2023/10/18 01:49:50;;;;;;;6.03;2.05;;;;;;;5.80;62.68;100158.63;10216074;28;20430;-58
2023/10/18 01:54:52;;;;;;;2.90;1.30;;;;;;;5.77;63.16;100154.44;10216734;28;20362;-58
2023/10/18 01:59:54;;;;;;;6.10;1.67;;;;;;;5.74;63.66;100149.38;10216802;28;20050;-59
2023/10/18 02:04:57;;;;;;;4.22;2.13;;;;;;;5.74;63.07;100149.38;10215800;28;20043;-58
2023/10/18 02:09:58;;;;;;;2.70;1.60;;;;;;;5.71;62.74;100139.88;10224345;28;20082;-59
2023/10/18 02:15:04;;;;;;;4.00;1.77;;;;;;;5.69;63.37;100133.00;10218491;28;20133;-59
2023/10/18 02:20:15;;;;;;;3.13;1.75;;;;;;;5.62;62.87;100134.59;10225512;28;20096;-59
2023/10/18 02:25:24;;;;;;;1.88;1.23;;;;;;;5.60;63.54;100129.41;10220025;28;20087;-59
2023/10/18 02:30:26;;;;;;;4.05;1.42;;;;;;;5.56;63.82;100128.03;10215877;28;20039;-58
2023/10/18 02:35:27;;;;;;;5.50;1.55;;;;;;;5.60;63.11;100121.41;10223628;28;20047;-58
2023/10/18 02:40:29;;;;;;;3.35;1.27;;;;;;;5.61;63.56;100117.75;10220326;28;20058;-59
2023/10/18 02:45:31;;;;;;;3.10;1.80;;;;;;;5.63;63.67;100110.44;10219141;28;20046;-59
2023/10/18 02:50:33;;;;;;;2.05;1.52;;;;;;;5.66;64.04;100095.97;10249900;28;20048;-58
2023/10/18 02:55:38;;;;;;;8.35;1.75;;;;;;;5.64;63.25;100093.44;10214858;28;20122;-58
2023/10/18 03:00:40;;;;;;;2.50;1.33;;;;;;;5.60;63.75;100089.41;10222900;28;20443;-57
2023/10/18 03:05:42;;;;;;;3.42;1.77;;;;;;;5.61;63.53;100083.09;10217017;28;20058;-58
2023/10/18 03:10:44;;;;;;;2.00;1.25;;;;;;;5.61;64.06;100075.09;10217862;28;20051;-58
2023/10/18 03:16:04;;;;;;;4.30;2.33;;;;;;;5.60;63.72;100072.56;10211208;28;20083;-58
2023/10/18 03:21:06;;;;;;;3.25;1.67;;;;;;;5.61;63.53;100064.44;10215748;28;20055;-57
2023/10/18 03:26:08;;;;;;;7.57;2.25;;;;;;;5.63;63.69;100067.78;10213981;28;20067;-58
2023/10/18 03:31:21;;;;;;;4.28;1.92;;;;;;;5.61;64.31;100064.44;10219754;28;20043;-58
2023/10/18 03:36:25;;;;;;;4.25;2.08;;;;;;;5.63;63.82;100069.59;10222429;28;20614;-58
2023/10/18 03:41:33;;;;;;;3.60;2.17;;;;;;;5.61;64.41;100067.09;10216196;28;20039;-58
2023/10/18 03:47:03;;;;;;;4.45;2.40;;;;;;;5.61;64.19;100064.44;10216740;28;20098;-58
2023/10/18 03:57:16;;;;;;;7.40;3.92;;;;;;;5.60;63.46;100059.25;10214663;28;20147;-57
2023/10/18 04:07:26;;;;;;;6.07;2.83;;;;;;;5.52;63.59;100054.66;10227679;28;20071;-57
2023/10/18 04:12:28;;;;;;;5.15;2.13;;;;;;;5.46;64.25;100061.44;10222250;28;20058;-58
2023/10/18 04:22:37;;;;;;;7.03;3.05;;;;;;;5.52;63.76;100055.50;10219968;28;20098;-59
2023/10/18 04:27:40;;;;;;;5.28;2.40;;;;;;;5.52;64.18;100046.66;10224733;28;20044;-60
2023/10/18 04:32:42;;;;;;;5.70;2.30;;;;;;;5.54;64.05;100036.69;10225133;28;20118;-59
2023/10/18 04:37:44;;;;;;;3.63;2.47;;;;;;;5.53;64.20;100030.53;10227776;28;20044;-60
2023/10/18 04:42:46;;;;;;;2.55;1.58;;;;;;;5.57;64.24;100033.72;10255660;28;20044;-60
2023/10/18 04:47:49;;;;;;;7.28;2.65;;;;;;;5.57;64.42;100021.22;10222173;28;20130;-59
2023/10/18 04:52:50;;;;;;;5.07;2.10;;;;;;;5.59;64.10;100007.75;10221983;28;20534;-60
2023/10/18 04:57:53;;;;;;;5.30;2.47;;;;;;;5.63;64.15;99994.94;10220663;28;20057;-60
2023/10/18 05:02:58;;;;;;;5.57;2.13;;;;;;;5.62;64.44;99991.44;10250342;28;20146;-59
2023/10/18 05:08:00;;;;;;;6.57;2.33;;;;;;;5.58;64.63;99987.41;10225287;28;20042;-59
2023/10/18 05:13:10;;;;;;;5.68;2.33;;;;;;;5.59;63.93;99974.91;10218670;28;20592;-59
2023/10/18 05:18:15;;;;;;;6.80;3.05;;;;;;;5.64;64.48;99972.63;10221413;28;20122;-60
2023/10/18 05:23:22;;;;;;;9.77;3.17;;;;;;;5.71;64.68;99971.88;10221194;28;20058;-59
2023/10/18 05:28:28;;;;;;;5.63;3.27;;;;;;;5.79;65.08;99978.25;10232121;28;20043;-60
2023/10/18 05:43:47;;;;;;;7.20;2.60;;;;;;;6.08;64.60;99960.19;10224994;28;20055;-57
2023/10/18 05:48:49;;;;;;;4.63;2.42;;;;;;;6.17;64.74;99957.56;10215985;28;20067;-59
2023/10/18 05:53:59;;;;;;;3.33;2.55;;;;;;;6.16;64.55;99951.34;10220955;28;20463;-59
2023/10/18 06:04:26;;;;;;;10.55;4.10;;;;;;;6.34;64.59;99954.00;10214472;28;20394;-60
2023/10/18 06:09:32;;;;;;;;;;;;;;;6.41;64.33;99944.34;10215772;28;20059;-60
2023/10/18 06:14:40;;;;;;;11.25;3.13;;;;;;;6.47;64.74;99948.22;10218073;28;19927;-60
2023/10/18 06:19:45;;;;;;;9.73;4.05;;;;;;;6.54;64.52;99949.25;10213386;28;20054;-60
2023/10/18 06:24:48;;;;;;;7.60;3.05;;;;;;;6.63;64.34;99944.78;10219774;28;20048;-60
2023/10/18 06:29:54;;;;;;;7.75;3.10;;;;;;;6.64;64.39;99931.25;10216485;28;20046;-59
2023/10/18 06:34:56;;;;;;;5.80;3.10;;;;;;;6.71;63.78;99937.66;10210393;28;20053;-60
2023/10/18 06:40:02;;;;;;;8.18;3.40;;;;;;;6.80;64.02;99940.34;10219643;28;20039;-60
2023/10/18 06:45:10;;;;;;;7.68;2.90;;;;;;;6.88;64.49;99941.19;10215717;28;20051;-59
2023/10/18 06:50:26;;;;;;;5.00;2.88;;;;;;;6.94;64.91;99940.53;10218719;28;20043;-60
2023/10/18 06:55:56;;;;;;;5.47;3.00;;;;;;;7.03;63.94;99932.53;10225585;28;20138;-59
2023/10/18 07:01:08;;;;;;;6.45;3.92;;;;;;;7.17;64.83;99929.25;10213097;28;20054;-60
2023/10/18 07:06:18;;;;;;;7.43;3.88;;;;;;;7.38;63.83;99934.09;10212813;28;20144;-60
2023/10/18 07:11:19;;;;;;;7.72;3.75;;;;;;;7.60;64.73;99921.09;10211035;28;20110;-59
2023/10/18 07:16:38;;;;;;;8.80;3.80;;;;;;;7.86;63.96;99910.19;10220986;28;20051;-60
2023/10/18 07:21:42;;;;;;;7.63;3.90;;;;;;;8.09;64.19;99904.97;10210530;28;20048;-60
2023/10/18 07:26:47;;;;;;;7.65;3.60;;;;;;;8.31;64.21;99895.38;10217839;28;20043;-60
2023/10/18 07:31:48;;;;;;;9.55;4.45;;;;;;;8.48;64.33;99899.69;10216772;28;20051;-60
2023/10/18 07:36:54;;;;;;;9.27;3.78;;;;;;;8.64;64.03;99885.38;10221226;28;20657;-59
2023/10/18 07:41:55;;;;;;;8.80;4.80;;;;;;;8.89;64.24;99886.09;10218954;28;20051;-60
2023/10/18 07:46:57;;;;;;;9.10;4.00;;;;;;;9.08;64.15;99876.78;10221650;28;20513;-61
2023/10/18 07:51:59;;;;;;;10.38;4.28;;;;;;;9.23;63.86;99878.69;10222398;28;20039;-59
2023/10/18 07:57:01;;;;;;;7.95;3.17;;;;;;;9.25;63.83;99873.97;10224612;28;20054;-62
2023/10/18 08:02:07;;;;;;;6.20;3.63;;;;;;;9.45;63.50;99861.72;10222950;28;20047;-60
2023/10/18 08:07:12;;;;;;;6.88;4.45;;;;;;;9.51;63.61;99850.25;10226468;28;20134;-59
2023/10/18 08:12:33;;;;;;;7.60;3.78;;;;;;;9.64;63.19;99828.19;10222533;28;20079;-59
2023/10/18 08:22:41;;;;;;;8.13;3.70;;;;;;;9.90;62.97;99826.94;10221251;28;20040;-59
2023/10/18 08:27:43;;;;;;;12.02;3.60;;;;;;;9.99;62.41;99828.50;10222193;28;20063;-58
2023/10/18 08:32:44;;;;;;;7.93;4.05;;;;;;;10.08;61.88;99830.06;10215999;28;20066;-58
2023/10/18 08:37:46;;;;;;;15.95;4.28;;;;;;;10.28;61.57;99821.44;10219988;28;20126;-59
2023/10/18 08:42:56;;;;;;;6.07;3.85;;;;;;;10.27;61.61;99809.88;10221241;28;20051;-57
2023/10/18 08:47:58;;;;;;;8.25;4.18;;;;;;;10.44;61.32;99810.50;10221574;28;20545;-59
2023/10/18 08:53:00;;;;;;;5.40;3.70;;;;;;;10.51;60.95;99781.88;10221594;28;20061;-58
2023/10/18 08:58:08;;;;;;;7.60;3.85;;;;;;;10.69;60.56;99772.53;10228338;28;20043;-60
2023/10/18 09:03:11;;;;;;;7.47;4.20;;;;;;;10.90;60.31;99767.19;10216853;28;20058;-59
2023/10/18 09:08:19;;;;;;;9.82;4.13;;;;;;;10.89;60.13;99773.56;10222745;28;20103;-60
2023/10/18 09:18:25;;;;;;;9.30;4.30;;;;;;;11.44;59.00;99760.38;10221800;28;20170;-60
2023/10/18 09:23:30;;;;;;;7.50;3.72;;;;;;;11.56;58.63;99754.44;10225552;28;20051;-58
2023/10/18 09:28:35;;;;;;;7.70;3.90;;;;;;;11.84;58.28;99743.63;10221079;28;20146;-59
2023/10/18 09:33:51;;;;;;;7.57;4.45;;;;;;;11.96;57.83;99746.63;10221332;28;20506;-59
2023/10/18 09:38:54;;;;;;;9.27;3.88;;;;;;;12.22;57.37;99745.88;10224017;28;20103;-59
2023/10/18 09:44:00;;;;;;;6.72;3.78;;;;;;;12.13;57.71;99739.84;10215346;28;20058;-59
2023/10/18 09:49:06;;;;;;;5.90;3.75;;;;;;;12.33;57.31;99731.84;10223609;28;20048;-60
2023/10/18 09:54:12;;;;;;;7.20;3.63;;;;;;;12.43;56.70;99720.69;10220719;28;20063;-59
2023/10/18 09:59:25;;;;;;;6.88;3.50;;;;;;;12.65;56.56;99719.47;10221556;28;20046;-59
2023/10/18 10:04:32;;;;;;;6.15;3.83;;;;;;;12.82;55.83;99705.59;10215798;28;20400;-60
2023/10/18 10:09:38;;;;;;;5.50;3.77;;;;;;;13.03;55.89;99693.75;10221253;28;20059;-61
2023/10/18 10:14:41;;;;;;;8.20;2.93;;;;;;;13.15;55.55;99677.75;10216624;28;20051;-60
2023/10/18 10:19:52;;;;;;;7.65;3.42;;;;;;;13.29;55.38;99669.47;10219745;28;20436;-60
2023/10/18 10:25:04;;;;;;;6.40;3.15;;;;;;;13.54;54.99;99660.69;10214640;28;20141;-58
2023/10/18 10:30:34;;;;;;;11.82;3.40;;;;;;;13.77;54.46;99659.38;10217511;28;20078;-58
2023/10/18 10:35:44;;;;;;;4.43;3.17;;;;;;;13.85;54.46;99651.03;10217371;28;20048;-58
2023/10/18 10:40:49;;;;;;;8.95;3.13;;;;;;;14.00;54.24;99638.06;10214193;28;20039;-57
2023/10/18 10:51:16;;;;;;;6.00;2.63;;;;;;;14.30;53.69;99618.56;10216451;28;20470;-59
2023/10/18 10:56:18;;;;;;;5.32;3.05;;;;;;;14.60;53.25;99596.31;10217504;28;20130;-58
2023/10/18 11:07:13;;;;;;;7.65;3.00;;;;;;;14.97;52.54;99570.16;10211123;28;20050;-61
2023/10/18 11:12:15;;;;;;;4.95;2.67;;;;;;;15.20;52.01;99552.41;10223227;28;20050;-58
2023/10/18 11:17:17;;;;;;;6.68;2.15;;;;;;;15.35;51.63;99550.16;10225720;28;20050;-58
2023/10/18 11:22:21;;;;;;;5.95;2.53;;;;;;;15.45;51.09;99546.91;10227005;28;20040;-66
2023/10/18 11:27:34;;;;;;;5.90;2.10;;;;;;;15.65;50.86;99541.22;10225582;28;20541;-62
2023/10/18 11:32:36;;;;;;;4.47;2.35;;;;;;;15.78;50.36;99515.88;10229634;28;20047;-64
2023/10/18 11:37:40;;;;;;;3.65;1.83;;;;;;;16.03;49.40;99505.69;10224325;28;20404;-65
2023/10/18 11:43:05;;;;;;;2.95;1.60;;;;;;;16.24;48.79;99488.00;10230351;28;20107;-64
2023/10/18 11:48:11;;;;;;;1.90;1.33;;;;;;;16.46;48.46;99476.59;10227419;28;20495;-66
2023/10/18 11:53:15;;;;;;;4.60;1.30;;;;;;;16.58;47.92;99471.16;10229422;28;20315;-60
2023/10/18 11:58:17;;;;;;;4.53;0.70;;;;;;;16.70;47.19;99458.38;10227093;28;20475;-66
2023/10/18 12:03:18;;;;;;;1.92;0.98;;;;;;;16.81;46.86;99440.44;10230932;28;20094;-63
2023/10/18 12:08:23;;;;;;;5.68;1.48;;;;;;;17.00;46.62;99422.13;10224879;28;20067;-65
2023/10/18 12:13:24;;;;;;;2.53;1.08;;;;;;;17.13;46.67;99426.47;10226381;28;20046;-63
2023/10/18 12:18:29;;;;;;;4.15;1.13;;;;;;;17.27;45.97;99416.13;10222919;28;20051;-65
2023/10/18 12:23:30;;;;;;;1.42;0.77;;;;;;;17.33;45.60;99421.41;10224149;28;20131;-64
2023/10/18 12:28:38;;;;;;;2.08;0.82;;;;;;;17.45;45.46;99422.16;10229177;28;20418;-64
2023/10/18 12:34:28;;;;;;;2.35;0.95;;;;;;;17.53;45.09;99415.50;10226906;28;20134;-59
2023/10/18 12:39:17;;;;;;;1.83;0.98;;;;;;;17.80;44.46;99384.97;10215962;28;20050;-58
2023/10/18 12:44:25;;;;;;;3.63;0.82;;;;;;;18.20;44.20;99375.81;10223527;28;20129;-58
2023/10/18 12:49:32;;;;;;;2.70;0.70;;;;;;;18.35;43.25;99364.34;10225671;28;20438;-58
2023/10/18 12:54:36;;;;;;;4.10;0.80;;;;;;;18.49;42.85;99362.88;10222739;28;20204;-58
2023/10/18 12:59:52;;;;;;;2.83;0.80;;;;;;;18.58;42.43;99355.09;10222648;28;20047;-57
2023/10/18 13:04:59;;;;;;;2.03;0.90;;;;;;;18.67;42.20;99336.44;10206217;28;20264;-58
2023/10/18 13:10:03;;;;;;;5.72;1.05;;;;;;;18.81;41.80;99324.09;10223542;28;20069;-58
2023/10/18 13:15:07;;;;;;;2.67;0.73;;;;;;;18.89;41.45;99311.94;10222043;28;20058;-58
2023/10/18 13:20:14;;;;;;;1.90;0.90;;;;;;;18.84;41.29;99307.25;10222972;28;20051;-58
2023/10/18 13:25:26;;;;;;;2.55;0.93;;;;;;;19.00;41.28;99300.88;10216506;28;20128;-59
2023/10/18 13:30:43;;;;;;;2.25;0.70;;;;;;;19.32;40.77;99275.56;10218442;28;20411;-58
2023/10/18 13:35:45;;;;;;;2.10;0.85;;;;;;;19.44;40.87;99261.75;10222025;28;20040;-59
2023/10/18 13:40:46;;;;;;;2.42;0.82;;;;;;;19.38;40.56;99238.25;10216167;28;20150;-59
2023/10/18 13:45:55;;;;;;;3.50;1.08;;;;;;;19.26;40.45;99227.56;10218677;28;20050;-59
2023/10/18 13:50:58;;;;;;;3.05;1.30;;;;;;;19.17;40.36;99226.38;10221395;28;20057;-59
2023/10/18 13:56:00;;;;;;;1.50;0.77;;;;;;;18.96;40.82;99214.50;10223444;28;20440;-59
2023/10/18 14:01:05;;;;;;;3.85;1.02;;;;;;;18.83;41.00;99215.75;10221701;28;20055;-59
2023/10/18 14:06:10;;;;;;;4.10;0.77;;;;;;;18.85;41.13;99235.38;10215397;28;20102;-60
2023/10/18 14:11:17;;;;;;;2.15;0.95;;;;;;;18.88;41.06;99226.69;10223505;28;20471;-59
2023/10/18 14:16:19;;;;;;;2.40;0.65;;;;;;;18.84;41.24;99214.69;10225755;28;20054;-59
2023/10/18 14:21:20;;;;;;;3.55;0.68;;;;;;;18.77;41.35;99206.66;10222362;28;20155;-59
2023/10/18 14:26:24;;;;;;;3.85;0.68;;;;;;;18.66;41.31;99199.50;10220146;28;20051;-59
2023/10/18 14:31:26;;;;;;;1.92;0.70;;;;;;;18.53;41.44;99189.84;10220904;28;20059;-59
2023/10/18 14:36:32;;;;;;;1.42;0.70;;;;;;;18.45;41.50;99184.06;10211481;28;20102;-60
2023/10/18 14:41:33;;;;;;;2.40;0.80;;;;;;;18.32;41.34;99191.53;10223211;28;20491;-63
2023/10/18 14:46:41;;;;;;;2.63;0.57;;;;;;;18.21;41.55;99173.47;10241405;28;20121;-61
2023/10/18 14:51:44;;;;;;;0.82;0.65;;;;;;;18.11;41.58;99174.16;10215370;28;20047;-59
2023/10/18 14:56:47;;;;;;;2.25;1.05;;;;;;;18.00;41.77;99183.28;10222815;28;20053;-64
2023/10/18 15:01:48;;;;;;;3.50;0.73;;;;;;;17.88;42.19;99175.25;10217122;28;20032;-64
2023/10/18 15:06:50;;;;;;;1.38;0.65;;;;;;;17.87;42.24;99179.06;10211325;28;20074;-63
2023/10/18 15:11:53;;;;;;;2.22;0.70;;;;;;;17.82;42.26;99160.72;10215476;28;20054;-63
2023/10/18 15:16:54;;;;;;;1.45;0.60;;;;;;;17.70;42.98;99157.31;10224644;28;20145;-63
2023/10/18 15:21:56;;;;;;;3.67;0.95;;;;;;;17.55;43.49;99152.50;10218643;28;20531;-63
2023/10/18 15:26:57;;;;;;;4.65;1.00;;;;;;;17.49;43.74;99150.78;10218965;28;20395;-63
2023/10/18 15:31:59;;;;;;;4.78;1.45;;;;;;;17.34;43.91;99143.25;10251440;28;20571;-63
2023/10/18 15:37:06;;;;;;;3.35;0.90;;;;;;;17.19;44.12;99137.59;10218665;28;20043;-63
2023/10/18 15:42:10;;;;;;;2.17;0.90;;;;;;;17.05;44.33;99135.22;10215813;28;20048;-64
2023/10/18 15:47:12;;;;;;;2.70;1.05;;;;;;;16.99;44.33;99129.97;10221287;28;20050;-63
2023/10/18 15:52:13;;;;;;;3.13;1.17;;;;;;;16.91;44.48;99122.25;10221044;28;20491;-62
2023/10/18 15:57:15;;;;;;;4.07;1.00;;;;;;;16.90;44.45;99115.97;10221016;28;20493;-62
2023/10/18 16:02:16;;;;;;;2.20;0.80;;;;;;;16.83;44.47;99113.44;10222155;28;20047;-61
2023/10/18 16:07:18;;;;;;;6.75;1.10;;;;;;;16.79;44.72;99096.00;10225208;28;20036;-61
2023/10/18 16:12:19;;;;;;;2.60;1.25;;;;;;;16.69;44.78;99082.28;10221402;28;20058;-64
2023/10/18 16:17:21;;;;;;;3.80;1.20;;;;;;;16.65;44.94;99065.66;10217533;28;20059;-62
2023/10/18 16:22:22;;;;;;;7.43;1.08;;;;;;;16.46;45.37;99070.50;10234411;28;20054;-65
2023/10/18 16:27:24;;;;;;;4.50;1.42;;;;;;;16.35;45.62;99066.00;10232628;28;20514;-61
2023/10/18 16:32:25;;;;;;;3.05;1.20;;;;;;;16.33;45.95;99070.84;10253615;28;20043;-60
2023/10/18 16:37:27;;;;;;;3.78;1.00;;;;;;;16.23;45.91;99079.63;10226741;28;20380;-59
2023/10/18 16:42:29;;;;;;;2.67;1.00;;;;;;;16.26;45.88;99072.88;10227981;28;20036;-59
2023/10/18 16:47:31;;;;;;;6.72;1.67;;;;;;;16.21;45.95;99068.19;10223101;28;20044;-58
2023/10/18 16:52:33;;;;;;;3.15;1.00;;;;;;;16.23;46.07;99063.34;10215733;28;20149;-59
2023/10/18 16:57:35;;;;;;;1.23;0.70;;;;;;;16.12;45.99;99061.53;10251611;28;20067;-59
2023/10/18 17:02:37;;;;;;;2.20;1.00;;;;;;;16.10;46.23;99066.38;10216994;28;20056;-60
2023/10/18 17:07:40;;;;;;;3.05;1.35;;;;;;;16.10;46.15;99063.66;10206143;28;20516;-59
2023/10/18 17:12:43;;;;;;;2.28;1.35;;;;;;;16.05;46.31;99066.25;10233653;28;20051;-61
2023/10/18 17:17:47;;;;;;;2.80;0.98;;;;;;;16.05;46.31;99061.69;10208483;28;20050;-61
2023/10/18 17:22:49;;;;;;;5.63;1.40;;;;;;;16.00;46.36;99063.47;10221917;28;20039;-60
2023/10/18 17:27:50;;;;;;;10.48;2.15;;;;;;;16.04;46.21;99054.59;10222020;28;20038;-60
2023/10/18 17:32:54;;;;;;;3.58;1.30;;;;;;;16.08;46.17;99054.94;10220733;28;20481;-60
2023/10/18 17:37:56;;;;;;;2.70;1.15;;;;;;;16.09;46.43;99044.91;10222100;28;20138;-62
2023/10/18 17:42:57;;;;;;;3.25;1.08;;;;;;;16.06;46.55;99049.75;10219625;28;20070;-61
2023/10/18 17:48:04;;;;;;;5.13;1.88;;;;;;;16.05;46.58;99029.16;10221615;28;20046;-60
2023/10/18 17:53:06;;;;;;;2.47;1.33;;;;;;;16.05;46.60;99021.03;10221020;28;20151;-59
2023/10/18 17:58:11;;;;;;;3.10;1.13;;;;;;;16.00;46.76;99012.78;10225424;28;20106;-60
2023/10/18 18:03:13;;;;;;;2.50;1.17;;;;;;;15.97;46.83;99010.56;10221256;28;20082;-60
2023/10/18 18:08:22;;;;;;;5.88;1.88;;;;;;;15.90;47.00;98998.25;10220449;28;20141;-60
2023/10/18 18:13:27;;;;;;;4.40;2.63;;;;;;;15.81;47.34;98985.06;10221267;28;20135;-59
2023/10/18 18:18:29;;;;;;;2.25;1.67;;;;;;;15.78;47.62;98979.34;10220046;28;20073;-60
2023/10/18 18:23:30;;;;;;;7.03;1.67;;;;;;;15.79;47.82;98967.44;10220632;28;20048;-59
2023/10/18 18:28:32;;;;;;;6.28;1.95;;;;;;;15.71;48.02;98965.09;10219085;28;20050;-59
2023/10/18 18:33:34;;;;;;;2.47;0.93;;;;;;;15.67;48.55;98954.72;10215891;28;20591;-58
2023/10/18 18:38:35;;;;;;;2.80;1.00;;;;;;;15.61;49.06;98953.00;10215962;28;20106;-58
2023/10/18 18:43:37;;;;;;;2.70;1.25;;;;;;;15.69;49.11;98934.72;10223164;28;20184;-59
2023/10/18 18:48:38;;;;;;;3.03;1.40;;;;;;;15.68;49.41;98925.78;10219448;28;20047;-59
2023/10/18 18:53:41;;;;;;;1.98;1.25;;;;;;;15.56;50.05;98920.41;10217370;28;20455;-59
2023/10/18 18:58:43;;;;;;;4.30;1.90;;;;;;;15.59;50.00;98924.53;10221683;28;20043;-60
2023/10/18 19:03:44;;;;;;;4.22;1.15;;;;;;;15.43;50.73;98920.72;10222856;28;20050;-59
2023/10/18 19:08:46;;;;;;;2.30;0.93;;;;;;;15.34;51.50;98919.44;10219102;28;20456;-59
2023/10/18 19:13:47;;;;;;;1.88;0.90;;;;;;;15.40;51.53;98916.63;10178774;29;20151;-59
2023/10/18 19:18:48;;;;;;;1.63;0.80;;;;;;;15.39;51.62;98908.72;10181315;28;20054;-58
2023/10/18 19:23:50;;;;;;;2.13;0.98;;;;;;;15.36;51.93;98910.00;10177682;29;20048;-59
2023/10/18 19:28:52;;;;;;;4.05;1.25;;;;;;;15.34;52.30;98903.22;10180263;29;20048;-59
2023/10/18 19:33:53;;;;;;;5.78;1.83;;;;;;;15.32;52.44;98889.91;10182296;28;20053;-58
2023/10/18 19:38:56;;;;;;;3.85;0.95;;;;;;;15.27;52.67;98887.13;10186630;28;20063;-58
2023/10/18 19:43:58;;;;;;;3.90;0.90;;;;;;;15.34;52.67;98886.97;10180195;28;20054;-57
2023/10/18 19:48:59;;;;;;;2.50;1.17;;;;;;;15.31;52.99;98873.94;10193168;28;20048;-58
2023/10/18 19:54:01;;;;;;;1.85;0.90;;;;;;;15.31;53.19;98876.63;10181214;28;20044;-58
2023/10/18 19:59:03;;;;;;;3.13;1.45;;;;;;;15.28;52.99;98856.25;10184505;28;20039;-58
2023/10/18 20:04:05;;;;;;;3.72;0.90;;;;;;;15.26;53.60;98861.09;10181973;29;20047;-58
2023/10/18 20:09:07;;;;;;;2.60;1.13;;;;;;;15.29;53.54;98862.53;10181854;28;20133;-58
2023/10/18 20:14:10;;;;;;;1.65;0.88;;;;;;;15.30;53.46;98861.44;10221268;28;20051;-59
2023/10/18 20:19:11;;;;;;;4.18;1.50;;;;;;;15.31;53.31;98876.63;10219981;28;20043;-58
2023/10/18 20:24:13;;;;;;;2.47;1.30;;;;;;;15.27;53.74;98869.00;10224326;28;20036;-59
2023/10/18 20:29:15;;;;;;;3.90;1.20;;;;;;;15.24;54.11;98863.22;10221728;28;20047;-59
2023/10/18 20:34:17;;;;;;;3.45;1.30;;;;;;;15.22;54.21;98862.66;10218256;28;20341;-57
2023/10/18 20:39:19;;;;;;;3.22;1.35;;;;;;;15.20;54.62;98852.06;10215537;28;20747;-59
2023/10/18 20:44:27;;;;;;;3.78;1.42;;;;;;;15.14;54.97;98836.00;10213334;28;20962;-59
2023/10/18 20:49:32;;;;;;;1.73;1.25;;;;;;;15.16;54.90;98831.97;10216806;28;20050;-59
2023/10/18 20:54:36;;;;;;;2.03;1.23;;;;;;;15.16;54.97;98831.97;10216606;28;20061;-59
2023/10/18 20:59:42;;;;;;;3.50;1.50;;;;;;;15.13;55.16;98824.34;10216859;28;20051;-61
2023/10/18 21:04:45;;;;;;;5.03;1.77;;;;;;;14.98;56.06;98813.25;10221031;28;21035;-60
2023/10/18 21:09:46;;;;;;;2.83;1.73;;;;;;;14.65;57.25;98804.81;10224174;28;20063;-63
2023/10/18 21:14:48;;;;;;;2.85;1.80;;;;;;;14.36;58.56;98803.91;10220613;28;20052;-62
2023/10/18 21:19:50;;;;;;;4.05;2.13;;;;;;;14.15;59.66;98797.25;10224111;28;20043;-65
2023/10/18 21:24:51;;;;;;;4.65;2.30;;;;;;;14.01;60.59;98799.38;10224952;28;20115;-62
2023/10/18 21:29:54;;;;;;;5.40;2.28;;;;;;;13.86;61.15;98785.53;10222029;28;20482;-60
2023/10/18 21:34:55;;;;;;;3.40;1.95;;;;;;;13.59;62.19;98794.13;10225913;28;20627;-61
2023/10/18 21:39:57;;;;;;;7.30;2.45;;;;;;;13.47;62.95;98780.63;10221320;28;20051;-61
2023/10/18 21:44:58;;;;;;;3.05;2.13;;;;;;;13.38;64.09;98776.59;10245926;28;20071;-60
2023/10/18 21:50:01;;;;;;;3.20;1.77;;;;;;;13.27;65.35;98772.00;10227849;28;20050;-60
2023/10/18 21:55:05;;;;;;;4.55;2.22;;;;;;;13.21;66.23;98768.34;10219980;28;20053;-62
2023/10/18 22:00:15;;;;;;;3.78;1.98;;;;;;;13.18;66.74;98758.00;10226252;28;20086;-64
2023/10/18 22:05:16;;;;;;;5.30;2.17;;;;;;;13.09;67.32;98754.84;10224040;28;20456;-62
2023/10/18 22:10:22;;;;;;;3.92;2.30;;;;;;;13.03;67.75;98749.53;10224422;28;20047;-64
2023/10/18 22:15:25;;;;;;;5.93;2.45;;;;;;;12.89;68.67;98738.97;10214591;28;20047;-64
2023/10/18 22:20:27;;;;;;;4.47;2.40;;;;;;;12.92;69.34;98736.88;10217533;28;20078;-63
2023/10/18 22:25:36;;;;;;;6.90;2.83;;;;;;;12.78;69.85;98734.38;10224506;28;20133;-65
2023/10/18 22:30:43;;;;;;;3.72;2.88;;;;;;;12.74;70.15;98719.69;10233157;28;20090;-63
2023/10/18 22:35:48;;;;;;;5.93;3.53;;;;;;;12.76;70.18;98714.09;10216679;28;20053;-62
2023/10/18 22:40:52;;;;;;;6.30;3.13;;;;;;;12.80;70.96;98707.19;10220885;28;20052;-63
2023/10/18 22:46:04;;;;;;;9.90;3.58;;;;;;;12.76;71.10;98703.31;10218816;28;20060;-62
2023/10/18 22:51:10;;;;;;;4.47;2.90;;;;;;;12.75;71.33;98705.16;10218017;28;20487;-64
2023/10/18 22:56:28;;;;;;;6.57;3.42;;;;;;;12.72;72.00;98694.00;10212889;28;20110;-64
2023/10/18 23:01:31;;;;;;;7.20;4.10;;;;;;;12.68;72.34;98683.69;10218774;28;20047;-60
2023/10/18 23:06:34;;;;;;;6.47;3.97;;;;;;;12.63;72.41;98674.66;10214319;28;20047;-62
2023/10/18 23:11:56;;;;;;;7.63;5.15;;;;;;;12.65;72.78;98672.53;10212020;28;20051;-60
2023/10/18 23:22:19;;;;;;;10.93;4.28;;;;;;;12.66;73.05;98649.94;10217316;28;20624;-60
2023/10/18 23:32:53;;;;;;;10.32;5.55;;;;;;;12.52;74.00;98643.09;10213241;28;20044;-61
2023/10/18 23:37:55;;;;;;;9.27;5.13;;;;;;;12.54;74.01;98632.91;10215169;28;20317;-61
2023/10/18 23:48:27;;;;;;;12.07;6.00;;;;;;;12.59;74.06;98616.88;10208623;28;20068;-60
2023/10/18 23:53:29;;;;;;;11.90;6.28;;;;;;;12.65;74.07;98614.06;10219253;28;20053;-60
2023/10/18 23:58:31;;;;;;;11.70;6.18;;;;;;;12.55;74.67;98610.31;10242074;28;20702;-59
